Portada
METAR-TAF:

METAR-TAF

Aeropuertos :

Bandar Kangan, Irán

latitud: 27-49-14N, longitud: 52-21-08E, altitud: 662 m

Observación

El informe se hizo hace 48 minutos, a las 11:00 UTC
Viento 4 kt del este
Temperatura 25°C
Humedad 32%
Presión 1020 hPa
Visibilidad 10 km o más
sin nubes por debajo de 1500 m y sin presencia de cumulonimbus.

METAR: OIBJ 231100Z 08004KT CAVOK 25/07 Q1020

Hora: 15:18 (11:48 UTC)


TAF: falta

Observaciones y pronósticos meteorológicos de más de 4000 aeropuertos (mensajes METAR y TAF).

Los puntos amarillos y rojos representan las estaciones disponibles.

Ponga el ratón en el punto deseado para ver el nombre de la estación.

Haga clic para ver las observaciones y los pronósticos meteorológicos.

Para cambiar el mapa : haga clic en los botones verdes con una cruz de color negro para hacer un zoom, en el botón verde con un guión para alejar o en las flechas verdes para mapas adyacentes.


METAR-TAF: